createdAt,value
2022-08-27T00:05:22.964Z,7.07
2022-08-27T00:20:28.386Z,7.45
2022-08-27T00:35:30.923Z,9.00
2022-08-27T00:50:37.888Z,13.02
2022-08-27T01:05:40.235Z,11.95
2022-08-27T01:20:51.835Z,22.52
2022-08-27T01:35:54.517Z,31.25
2022-08-27T01:50:56.778Z,34.85
2022-08-27T02:06:00.441Z,37.15
2022-08-27T02:21:02.736Z,38.38
2022-08-27T02:36:05.021Z,36.20
2022-08-27T02:51:08.555Z,37.72
2022-08-27T03:06:10.793Z,38.65
2022-08-27T03:21:18.531Z,38.03
2022-08-27T03:36:20.770Z,37.55
2022-08-27T03:51:23.827Z,38.22
2022-08-27T04:06:26.096Z,38.30
2022-08-27T04:21:28.347Z,43.42
2022-08-27T04:36:30.919Z,47.28
2022-08-27T04:51:33.811Z,49.30
2022-08-27T05:06:36.879Z,52.42
2022-08-27T05:21:45.300Z,52.05
2022-08-27T05:36:49.088Z,50.83
2022-08-27T05:51:54.022Z,52.30
2022-08-27T06:06:56.439Z,49.58
2022-08-27T06:22:00.065Z,47.72
2022-08-27T06:37:03.657Z,51.10
2022-08-27T06:52:08.250Z,47.22
2022-08-27T07:07:12.202Z,49.13
2022-08-27T07:22:14.466Z,48.55
2022-08-27T07:37:16.708Z,41.13
2022-08-27T07:52:20.267Z,42.58
2022-08-27T08:07:25.095Z,43.40
2022-08-27T08:22:27.415Z,33.35
2022-08-27T08:37:29.860Z,34.28
2022-08-27T08:52:35.148Z,31.17
2022-08-27T09:08:30.958Z,25.20
2022-08-27T09:23:40.530Z,18.63
2022-08-27T09:38:58.639Z,16.30
2022-08-27T09:54:02.127Z,15.02
2022-08-27T10:09:16.610Z,14.25
2022-08-27T10:24:40.105Z,12.85
2022-08-27T10:39:51.254Z,11.73
2022-08-27T10:54:55.694Z,11.48
2022-08-27T11:10:21.403Z,12.73
2022-08-27T11:25:39.676Z,9.98
2022-08-27T11:41:07.202Z,8.48
2022-08-27T11:56:20.810Z,8.95
2022-08-27T12:11:35.078Z,9.50
2022-08-27T12:26:39.205Z,11.95
2022-08-27T12:41:45.348Z,10.70
2022-08-27T12:57:00.693Z,11.00
2022-08-27T13:12:04.347Z,11.48
2022-08-27T13:27:06.685Z,10.40
2022-08-27T13:42:08.952Z,10.98
2022-08-27T13:57:13.470Z,11.32
2022-08-27T14:12:32.491Z,13.35
2022-08-27T14:27:36.217Z,13.90
2022-08-27T14:42:39.624Z,13.48
2022-08-27T14:57:41.905Z,14.02
2022-08-27T15:12:44.158Z,15.05
2022-08-27T15:27:48.949Z,13.77
2022-08-27T15:42:59.773Z,13.27
2022-08-27T15:58:02.097Z,12.45
2022-08-27T16:13:04.334Z,12.77
2022-08-27T16:28:06.614Z,13.70
2022-08-27T16:43:08.917Z,13.57
2022-08-27T16:58:19.562Z,13.05
2022-08-27T17:28:30.391Z,18.45
2022-08-27T17:43:32.657Z,18.10
2022-08-27T17:58:34.893Z,17.25
2022-08-27T18:13:37.290Z,17.08
2022-08-27T18:28:39.542Z,19.35
2022-08-27T18:43:42.729Z,21.75
2022-08-27T18:58:45.471Z,22.05
2022-08-27T19:13:50.961Z,22.15
2022-08-27T19:28:53.350Z,23.17
2022-08-27T19:43:57.937Z,23.15
2022-08-27T19:59:13.426Z,24.33
2022-08-27T20:14:22.563Z,24.60
2022-08-27T20:29:32.512Z,37.85
2022-08-27T20:44:36.942Z,28.93
2022-08-27T20:59:57.699Z,23.38
2022-08-27T21:15:00.189Z,22.30
2022-08-27T21:30:02.596Z,25.38
2022-08-27T21:45:05.513Z,23.92
2022-08-27T22:00:26.311Z,21.77
2022-08-27T22:15:28.575Z,19.67
2022-08-27T22:30:30.911Z,22.58
2022-08-27T22:45:34.648Z,19.67
2022-08-27T23:00:37.450Z,26.38
2022-08-27T23:15:39.797Z,28.60
2022-08-27T23:30:42.222Z,24.13
2022-08-27T23:45:44.469Z,22.40
